Wisconsin Rapids, Wisconsin
Current Conditions -  °F | °C
As of 9:54 AM on Thursday 30 Oct 2014 (Local Time) from KISW Reporting Station
Overcast Overcast  
Wind Chill: 40°   Ceiling: 9000
Heat Index: 40°   Visibility: 10mi
Dew Point: 35°   Wind: 3mph
Humidity: 83%   Direction: 250°WSW
Pressure: 30.09"   Gusts: NA
Location:  44.39°N, 89.82°W
Report Text: KISW 301454Z AUTO 25003KT 10SM FEW070 OVC090 04/02 A3009 RMK AO2 SLP200 T00440017 51001
Loading
Personal Weather Stations






























Interactive Weather Map New forecast layout! Learn more

10-Day Weather Forecast

Advertisements
Track Severe Weather on mobile